sensor_id;sensor_type;location;lat;lon;timestamp;P1;durP1;ratioP1;P2;durP2;ratioP2
64487;SDS011;50864;45.050;39.014;2023-02-20T13:45:41;6.60;;;4.05;;
64487;SDS011;50864;45.050;39.014;2023-02-20T13:59:09;5.43;;;3.50;;
64487;SDS011;50864;45.050;39.014;2023-02-20T14:01:56;6.87;;;4.10;;
64487;SDS011;50864;45.050;39.014;2023-02-20T14:04:25;9.65;;;5.60;;
64487;SDS011;50864;45.050;39.014;2023-02-20T14:06:52;8.38;;;4.47;;
64487;SDS011;50864;45.050;39.014;2023-02-20T14:09:21;5.18;;;3.45;;
64487;SDS011;50864;45.050;39.014;2023-02-20T14:11:52;4.90;;;3.25;;
64487;SDS011;50864;45.050;39.014;2023-02-20T14:14:23;6.10;;;3.78;;
64487;SDS011;50864;45.050;39.014;2023-02-20T14:19:40;9.57;;;4.95;;
64487;SDS011;50864;45.050;39.014;2023-02-20T14:22:22;7.62;;;2.85;;
64487;SDS011;50864;45.050;39.014;2023-02-20T14:27:38;5.90;;;3.85;;
64487;SDS011;50864;45.050;39.014;2023-02-20T14:30:10;6.85;;;4.00;;
64487;SDS011;50864;45.050;39.014;2023-02-20T14:33:14;4.57;;;2.92;;
64487;SDS011;50864;45.050;39.014;2023-02-20T14:35:51;5.97;;;4.15;;
64487;SDS011;50864;45.050;39.014;2023-02-20T14:41:21;6.07;;;3.53;;
64487;SDS011;50864;45.050;39.014;2023-02-20T14:43:55;6.75;;;4.05;;
64487;SDS011;50864;45.050;39.014;2023-02-20T14:46:35;7.80;;;4.50;;
64487;SDS011;50864;45.050;39.014;2023-02-20T14:49:09;7.70;;;3.55;;
64487;SDS011;50864;45.050;39.014;2023-02-20T14:51:40;6.50;;;4.10;;
64487;SDS011;50864;45.050;39.014;2023-02-20T14:54:15;4.28;;;3.35;;
64487;SDS011;50864;45.050;39.014;2023-02-20T14:56:41;6.40;;;4.32;;
64487;SDS011;50864;45.050;39.014;2023-02-20T15:01:49;9.20;;;5.05;;
64487;SDS011;50864;45.050;39.014;2023-02-20T15:04:53;8.20;;;5.80;;
64487;SDS011;50864;45.050;39.014;2023-02-20T15:07:37;10.18;;;5.93;;
64487;SDS011;50864;45.050;39.014;2023-02-20T15:10:22;6.28;;;4.22;;
64487;SDS011;50864;45.050;39.014;2023-02-20T15:13:04;7.60;;;5.05;;
64487;SDS011;50864;45.050;39.014;2023-02-20T15:15:33;8.82;;;4.35;;
64487;SDS011;50864;45.050;39.014;2023-02-20T15:18:05;9.23;;;4.87;;
64487;SDS011;50864;45.050;39.014;2023-02-20T15:20:41;9.57;;;5.47;;
64487;SDS011;50864;45.050;39.014;2023-02-20T15:25:41;5.28;;;3.87;;
64487;SDS011;50864;45.050;39.014;2023-02-20T15:30:59;11.57;;;6.03;;
64487;SDS011;50864;45.050;39.014;2023-02-20T15:33:32;7.18;;;4.35;;
64487;SDS011;50864;45.050;39.014;2023-02-20T15:36:00;9.27;;;4.90;;
64487;SDS011;50864;45.050;39.014;2023-02-20T15:38:30;11.00;;;5.85;;
64487;SDS011;50864;45.050;39.014;2023-02-20T15:40:59;11.40;;;5.12;;
64487;SDS011;50864;45.050;39.014;2023-02-20T15:43:26;7.35;;;4.25;;
64487;SDS011;50864;45.050;39.014;2023-02-20T15:45:53;11.75;;;5.55;;
64487;SDS011;50864;45.050;39.014;2023-02-20T15:48:19;12.95;;;6.05;;
64487;SDS011;50864;45.050;39.014;2023-02-20T15:50:46;11.10;;;5.70;;
64487;SDS011;50864;45.050;39.014;2023-02-20T15:53:17;8.32;;;5.90;;
64487;SDS011;50864;45.050;39.014;2023-02-20T15:55:55;9.82;;;5.72;;
64487;SDS011;50864;45.050;39.014;2023-02-20T15:58:24;13.77;;;7.50;;
64487;SDS011;50864;45.050;39.014;2023-02-20T16:00:58;12.85;;;6.93;;
64487;SDS011;50864;45.050;39.014;2023-02-20T16:03:25;9.27;;;5.72;;
64487;SDS011;50864;45.050;39.014;2023-02-20T16:05:53;8.98;;;5.68;;
64487;SDS011;50864;45.050;39.014;2023-02-20T16:08:20;10.18;;;6.47;;
64487;SDS011;50864;45.050;39.014;2023-02-20T16:10:47;7.07;;;5.93;;
64487;SDS011;50864;45.050;39.014;2023-02-20T16:13:27;9.73;;;7.37;;
64487;SDS011;50864;45.050;39.014;2023-02-20T16:15:58;8.98;;;5.37;;
64487;SDS011;50864;45.050;39.014;2023-02-20T16:18:31;11.25;;;6.55;;
64487;SDS011;50864;45.050;39.014;2023-02-20T16:20:57;7.43;;;4.97;;
64487;SDS011;50864;45.050;39.014;2023-02-20T16:23:23;13.95;;;8.55;;
64487;SDS011;50864;45.050;39.014;2023-02-20T16:25:49;12.07;;;8.25;;
64487;SDS011;50864;45.050;39.014;2023-02-20T16:28:15;15.43;;;8.05;;
64487;SDS011;50864;45.050;39.014;2023-02-20T16:30:41;8.57;;;5.97;;
64487;SDS011;50864;45.050;39.014;2023-02-20T16:33:16;9.13;;;5.40;;
64487;SDS011;50864;45.050;39.014;2023-02-20T16:35:45;8.35;;;5.80;;
64487;SDS011;50864;45.050;39.014;2023-02-20T16:38:12;9.75;;;5.05;;
64487;SDS011;50864;45.050;39.014;2023-02-20T16:40:38;9.82;;;5.87;;
64487;SDS011;50864;45.050;39.014;2023-02-20T16:43:04;12.55;;;6.05;;
64487;SDS011;50864;45.050;39.014;2023-02-20T16:45:31;12.98;;;5.07;;
64487;SDS011;50864;45.050;39.014;2023-02-20T16:47:58;7.75;;;4.78;;
64487;SDS011;50864;45.050;39.014;2023-02-20T16:50:26;12.00;;;5.62;;
64487;SDS011;50864;45.050;39.014;2023-02-20T16:52:55;9.32;;;5.00;;
64487;SDS011;50864;45.050;39.014;2023-02-20T16:57:56;5.68;;;3.78;;
64487;SDS011;50864;45.050;39.014;2023-02-20T17:00:26;9.20;;;5.57;;
64487;SDS011;50864;45.050;39.014;2023-02-20T17:02:54;9.00;;;5.07;;
64487;SDS011;50864;45.050;39.014;2023-02-20T17:05:21;9.65;;;4.95;;
64487;SDS011;50864;45.050;39.014;2023-02-20T17:07:49;9.18;;;5.10;;
64487;SDS011;50864;45.050;39.014;2023-02-20T17:10:15;7.00;;;3.67;;
64487;SDS011;50864;45.050;39.014;2023-02-20T17:12:41;8.35;;;4.43;;
64487;SDS011;50864;45.050;39.014;2023-02-20T17:15:07;8.90;;;4.30;;
64487;SDS011;50864;45.050;39.014;2023-02-20T17:17:35;8.23;;;3.85;;
64487;SDS011;50864;45.050;39.014;2023-02-20T17:20:01;9.93;;;4.95;;
64487;SDS011;50864;45.050;39.014;2023-02-20T17:22:28;5.12;;;3.53;;
64487;SDS011;50864;45.050;39.014;2023-02-20T17:24:54;8.38;;;4.10;;
64487;SDS011;50864;45.050;39.014;2023-02-20T17:27:21;7.32;;;4.25;;
64487;SDS011;50864;45.050;39.014;2023-02-20T17:29:48;6.35;;;3.58;;
64487;SDS011;50864;45.050;39.014;2023-02-20T17:32:14;3.10;;;2.58;;
64487;SDS011;50864;45.050;39.014;2023-02-20T17:34:40;6.50;;;3.92;;
64487;SDS011;50864;45.050;39.014;2023-02-20T17:37:07;10.48;;;5.00;;
64487;SDS011;50864;45.050;39.014;2023-02-20T17:39:33;5.70;;;3.45;;
64487;SDS011;50864;45.050;39.014;2023-02-20T17:42:00;8.73;;;4.18;;
64487;SDS011;50864;45.050;39.014;2023-02-20T17:44:27;5.72;;;3.80;;
64487;SDS011;50864;45.050;39.014;2023-02-20T17:46:55;4.32;;;2.87;;
64487;SDS011;50864;45.050;39.014;2023-02-20T17:49:23;4.65;;;2.75;;
64487;SDS011;50864;45.050;39.014;2023-02-20T17:51:52;8.10;;;3.70;;
64487;SDS011;50864;45.050;39.014;2023-02-20T17:54:26;8.65;;;4.25;;
64487;SDS011;50864;45.050;39.014;2023-02-20T17:56:53;11.48;;;3.62;;
64487;SDS011;50864;45.050;39.014;2023-02-20T17:59:20;7.70;;;3.28;;
64487;SDS011;50864;45.050;39.014;2023-02-20T18:01:48;6.18;;;3.65;;
64487;SDS011;50864;45.050;39.014;2023-02-20T18:04:14;9.25;;;4.40;;
64487;SDS011;50864;45.050;39.014;2023-02-20T18:06:40;4.15;;;3.03;;
64487;SDS011;50864;45.050;39.014;2023-02-20T18:09:07;5.05;;;3.45;;
64487;SDS011;50864;45.050;39.014;2023-02-20T18:11:34;9.52;;;3.72;;
64487;SDS011;50864;45.050;39.014;2023-02-20T18:14:01;6.03;;;3.60;;
64487;SDS011;50864;45.050;39.014;2023-02-20T18:16:27;6.57;;;3.50;;
64487;SDS011;50864;45.050;39.014;2023-02-20T18:18:54;6.12;;;3.62;;
64487;SDS011;50864;45.050;39.014;2023-02-20T18:23:45;7.57;;;4.05;;
64487;SDS011;50864;45.050;39.014;2023-02-20T18:26:12;7.65;;;3.30;;
64487;SDS011;50864;45.050;39.014;2023-02-20T18:28:38;3.30;;;2.22;;
64487;SDS011;50864;45.050;39.014;2023-02-20T18:31:05;7.82;;;3.72;;
64487;SDS011;50864;45.050;39.014;2023-02-20T18:33:31;3.83;;;2.87;;
64487;SDS011;50864;45.050;39.014;2023-02-20T18:35:57;8.00;;;3.95;;
64487;SDS011;50864;45.050;39.014;2023-02-20T18:38:23;13.23;;;3.12;;
64487;SDS011;50864;45.050;39.014;2023-02-20T18:40:50;8.35;;;3.00;;
64487;SDS011;50864;45.050;39.014;2023-02-20T18:43:16;12.10;;;7.85;;
64487;SDS011;50864;45.050;39.014;2023-02-20T18:45:42;3.95;;;3.37;;
64487;SDS011;50864;45.050;39.014;2023-02-20T18:48:08;8.25;;;3.45;;
64487;SDS011;50864;45.050;39.014;2023-02-20T18:50:34;6.15;;;2.95;;
64487;SDS011;50864;45.050;39.014;2023-02-20T18:52:59;3.83;;;2.80;;
64487;SDS011;50864;45.050;39.014;2023-02-20T18:55:27;5.87;;;3.37;;
64487;SDS011;50864;45.050;39.014;2023-02-20T18:57:53;6.10;;;3.60;;
64487;SDS011;50864;45.050;39.014;2023-02-20T19:00:20;11.12;;;2.92;;
64487;SDS011;50864;45.050;39.014;2023-02-20T19:02:58;3.03;;;2.65;;
64487;SDS011;50864;45.050;39.014;2023-02-20T19:05:26;6.93;;;3.25;;
64487;SDS011;50864;45.050;39.014;2023-02-20T19:07:52;4.20;;;3.15;;
64487;SDS011;50864;45.050;39.014;2023-02-20T19:10:22;8.48;;;3.12;;
64487;SDS011;50864;45.050;39.014;2023-02-20T19:12:50;4.35;;;3.00;;
64487;SDS011;50864;45.050;39.014;2023-02-20T19:15:32;5.28;;;2.80;;
64487;SDS011;50864;45.050;39.014;2023-02-20T19:17:58;8.25;;;3.50;;
64487;SDS011;50864;45.050;39.014;2023-02-20T19:20:24;5.80;;;3.25;;
64487;SDS011;50864;45.050;39.014;2023-02-20T19:22:55;5.72;;;2.80;;
64487;SDS011;50864;45.050;39.014;2023-02-20T19:25:35;4.70;;;3.45;;
64487;SDS011;50864;45.050;39.014;2023-02-20T19:28:20;4.22;;;3.03;;
64487;SDS011;50864;45.050;39.014;2023-02-20T19:30:46;10.93;;;3.00;;
64487;SDS011;50864;45.050;39.014;2023-02-20T19:33:11;5.53;;;2.60;;
64487;SDS011;50864;45.050;39.014;2023-02-20T19:35:37;6.20;;;3.17;;
64487;SDS011;50864;45.050;39.014;2023-02-20T19:38:03;5.93;;;3.10;;
64487;SDS011;50864;45.050;39.014;2023-02-20T19:40:29;5.28;;;3.03;;
64487;SDS011;50864;45.050;39.014;2023-02-20T19:42:55;2.97;;;2.47;;
64487;SDS011;50864;45.050;39.014;2023-02-20T19:45:21;5.93;;;3.30;;
64487;SDS011;50864;45.050;39.014;2023-02-20T19:47:47;3.85;;;2.67;;
64487;SDS011;50864;45.050;39.014;2023-02-20T19:50:13;5.75;;;2.85;;
64487;SDS011;50864;45.050;39.014;2023-02-20T19:52:40;3.17;;;2.55;;
64487;SDS011;50864;45.050;39.014;2023-02-20T19:55:06;11.15;;;2.70;;
64487;SDS011;50864;45.050;39.014;2023-02-20T19:57:32;4.50;;;2.75;;
64487;SDS011;50864;45.050;39.014;2023-02-20T19:59:58;5.47;;;2.45;;
64487;SDS011;50864;45.050;39.014;2023-02-20T20:02:24;3.72;;;2.70;;
64487;SDS011;50864;45.050;39.014;2023-02-20T20:04:50;6.72;;;3.28;;
64487;SDS011;50864;45.050;39.014;2023-02-20T20:07:16;4.50;;;2.95;;
64487;SDS011;50864;45.050;39.014;2023-02-20T20:09:42;4.40;;;2.85;;
64487;SDS011;50864;45.050;39.014;2023-02-20T20:12:09;5.10;;;2.92;;
64487;SDS011;50864;45.050;39.014;2023-02-20T20:14:53;6.60;;;2.35;;
64487;SDS011;50864;45.050;39.014;2023-02-20T20:17:20;2.45;;;2.15;;
64487;SDS011;50864;45.050;39.014;2023-02-20T20:19:46;8.77;;;4.10;;
64487;SDS011;50864;45.050;39.014;2023-02-20T20:22:13;5.35;;;2.55;;
64487;SDS011;50864;45.050;39.014;2023-02-20T20:24:40;3.37;;;2.65;;
64487;SDS011;50864;45.050;39.014;2023-02-20T20:27:05;4.37;;;2.85;;
64487;SDS011;50864;45.050;39.014;2023-02-20T20:29:31;2.75;;;2.12;;
64487;SDS011;50864;45.050;39.014;2023-02-20T20:31:58;2.80;;;2.08;;
64487;SDS011;50864;45.050;39.014;2023-02-20T20:34:23;4.50;;;2.20;;
64487;SDS011;50864;45.050;39.014;2023-02-20T20:36:49;2.10;;;1.90;;
64487;SDS011;50864;45.050;39.014;2023-02-20T20:39:15;5.10;;;2.08;;
64487;SDS011;50864;45.050;39.014;2023-02-20T20:41:42;5.47;;;2.22;;
64487;SDS011;50864;45.050;39.014;2023-02-20T20:44:07;3.40;;;2.25;;
64487;SDS011;50864;45.050;39.014;2023-02-20T20:46:36;2.75;;;2.17;;
64487;SDS011;50864;45.050;39.014;2023-02-20T20:49:02;3.00;;;1.98;;
64487;SDS011;50864;45.050;39.014;2023-02-20T20:51:28;4.18;;;2.20;;
64487;SDS011;50864;45.050;39.014;2023-02-20T20:53:54;2.05;;;1.87;;
64487;SDS011;50864;45.050;39.014;2023-02-20T20:56:20;3.42;;;2.00;;
64487;SDS011;50864;45.050;39.014;2023-02-20T20:58:46;3.12;;;2.25;;
64487;SDS011;50864;45.050;39.014;2023-02-20T21:01:12;1.80;;;1.70;;
64487;SDS011;50864;45.050;39.014;2023-02-20T21:03:38;2.28;;;2.00;;
64487;SDS011;50864;45.050;39.014;2023-02-20T21:06:03;3.30;;;1.90;;
64487;SDS011;50864;45.050;39.014;2023-02-20T21:08:30;3.33;;;2.35;;
64487;SDS011;50864;45.050;39.014;2023-02-20T21:10:58;2.83;;;2.55;;
64487;SDS011;50864;45.050;39.014;2023-02-20T21:13:23;2.58;;;2.30;;
64487;SDS011;50864;45.050;39.014;2023-02-20T21:15:49;3.28;;;2.33;;
64487;SDS011;50864;45.050;39.014;2023-02-20T21:18:15;2.67;;;2.33;;
64487;SDS011;50864;45.050;39.014;2023-02-20T21:20:41;3.70;;;2.45;;
64487;SDS011;50864;45.050;39.014;2023-02-20T21:23:07;2.42;;;2.22;;
64487;SDS011;50864;45.050;39.014;2023-02-20T21:25:44;2.33;;;2.10;;
64487;SDS011;50864;45.050;39.014;2023-02-20T21:28:35;6.00;;;3.12;;
64487;SDS011;50864;45.050;39.014;2023-02-20T21:31:02;2.33;;;2.03;;
64487;SDS011;50864;45.050;39.014;2023-02-20T21:33:28;3.67;;;2.05;;
64487;SDS011;50864;45.050;39.014;2023-02-20T21:35:54;3.05;;;2.20;;
64487;SDS011;50864;45.050;39.014;2023-02-20T21:38:20;2.22;;;2.05;;
64487;SDS011;50864;45.050;39.014;2023-02-20T21:40:46;4.00;;;2.22;;
64487;SDS011;50864;45.050;39.014;2023-02-20T21:43:12;3.10;;;1.70;;
64487;SDS011;50864;45.050;39.014;2023-02-20T21:45:57;2.53;;;2.33;;
64487;SDS011;50864;45.050;39.014;2023-02-20T21:48:23;3.20;;;2.45;;
64487;SDS011;50864;45.050;39.014;2023-02-20T21:50:49;3.10;;;2.12;;
64487;SDS011;50864;45.050;39.014;2023-02-20T21:53:15;2.83;;;2.20;;
64487;SDS011;50864;45.050;39.014;2023-02-20T21:55:42;3.15;;;1.98;;
64487;SDS011;50864;45.050;39.014;2023-02-20T21:58:08;2.97;;;2.03;;
64487;SDS011;50864;45.050;39.014;2023-02-20T22:00:35;3.97;;;2.55;;
64487;SDS011;50864;45.050;39.014;2023-02-20T22:03:01;3.83;;;2.10;;
64487;SDS011;50864;45.050;39.014;2023-02-20T22:05:27;3.42;;;2.35;;
64487;SDS011;50864;45.050;39.014;2023-02-20T22:07:52;2.97;;;2.42;;
64487;SDS011;50864;45.050;39.014;2023-02-20T22:10:37;7.25;;;3.45;;
64487;SDS011;50864;45.050;39.014;2023-02-20T22:13:22;8.52;;;4.55;;
64487;SDS011;50864;45.050;39.014;2023-02-20T22:16:06;3.17;;;2.47;;
64487;SDS011;50864;45.050;39.014;2023-02-20T22:18:51;3.28;;;2.53;;
64487;SDS011;50864;45.050;39.014;2023-02-20T22:21:36;6.55;;;2.87;;
64487;SDS011;50864;45.050;39.014;2023-02-20T22:24:20;2.70;;;2.17;;
64487;SDS011;50864;45.050;39.014;2023-02-20T22:27:06;2.97;;;2.42;;
64487;SDS011;50864;45.050;39.014;2023-02-20T22:29:52;3.03;;;2.58;;
64487;SDS011;50864;45.050;39.014;2023-02-20T22:32:37;3.58;;;2.65;;
64487;SDS011;50864;45.050;39.014;2023-02-20T22:35:22;3.55;;;2.90;;
64487;SDS011;50864;45.050;39.014;2023-02-20T22:38:06;2.50;;;2.20;;
64487;SDS011;50864;45.050;39.014;2023-02-20T22:40:51;3.65;;;2.60;;
64487;SDS011;50864;45.050;39.014;2023-02-20T22:43:36;3.08;;;2.22;;
64487;SDS011;50864;45.050;39.014;2023-02-20T22:46:21;10.77;;;2.97;;
64487;SDS011;50864;45.050;39.014;2023-02-20T22:49:06;2.92;;;2.53;;
64487;SDS011;50864;45.050;39.014;2023-02-20T22:51:51;3.28;;;2.33;;
64487;SDS011;50864;45.050;39.014;2023-02-20T22:54:35;2.95;;;2.20;;
64487;SDS011;50864;45.050;39.014;2023-02-20T22:57:20;4.15;;;2.50;;
64487;SDS011;50864;45.050;39.014;2023-02-20T23:00:05;2.78;;;2.30;;
64487;SDS011;50864;45.050;39.014;2023-02-20T23:02:50;3.92;;;2.75;;
64487;SDS011;50864;45.050;39.014;2023-02-20T23:05:35;2.95;;;2.30;;
64487;SDS011;50864;45.050;39.014;2023-02-20T23:08:19;3.85;;;2.45;;
64487;SDS011;50864;45.050;39.014;2023-02-20T23:11:05;3.37;;;2.55;;
64487;SDS011;50864;45.050;39.014;2023-02-20T23:13:49;4.60;;;2.67;;
64487;SDS011;50864;45.050;39.014;2023-02-20T23:16:34;5.57;;;2.72;;
64487;SDS011;50864;45.050;39.014;2023-02-20T23:19:18;4.78;;;3.25;;
64487;SDS011;50864;45.050;39.014;2023-02-20T23:22:03;8.43;;;4.93;;
64487;SDS011;50864;45.050;39.014;2023-02-20T23:24:48;7.18;;;2.97;;
64487;SDS011;50864;45.050;39.014;2023-02-20T23:27:33;4.22;;;2.30;;
64487;SDS011;50864;45.050;39.014;2023-02-20T23:30:17;3.53;;;2.70;;
64487;SDS011;50864;45.050;39.014;2023-02-20T23:33:02;3.78;;;2.45;;
64487;SDS011;50864;45.050;39.014;2023-02-20T23:35:47;7.20;;;2.95;;
64487;SDS011;50864;45.050;39.014;2023-02-20T23:38:32;3.58;;;2.62;;
64487;SDS011;50864;45.050;39.014;2023-02-20T23:41:17;4.68;;;2.78;;
64487;SDS011;50864;45.050;39.014;2023-02-20T23:44:03;3.22;;;2.30;;
64487;SDS011;50864;45.050;39.014;2023-02-20T23:46:50;2.67;;;2.20;;
64487;SDS011;50864;45.050;39.014;2023-02-20T23:49:35;3.58;;;2.50;;
64487;SDS011;50864;45.050;39.014;2023-02-20T23:52:19;6.07;;;2.90;;
64487;SDS011;50864;45.050;39.014;2023-02-20T23:55:04;4.07;;;2.53;;
64487;SDS011;50864;45.050;39.014;2023-02-20T23:57:49;5.95;;;2.80;;
